createdAt,value
2023-02-08T00:00:39.998Z,26.85
2023-02-08T00:03:07.236Z,27.83
2023-02-08T00:05:34.308Z,29.45
2023-02-08T00:08:01.375Z,28.42
2023-02-08T00:10:28.418Z,29.02
2023-02-08T00:12:55.517Z,23.85
2023-02-08T00:15:22.670Z,27.70
2023-02-08T00:17:49.690Z,28.10
2023-02-08T00:20:16.843Z,26.08
2023-02-08T00:22:43.929Z,28.05
2023-02-08T00:25:11.001Z,28.65
2023-02-08T00:27:38.103Z,25.00
2023-02-08T00:30:05.400Z,27.83
2023-02-08T00:32:32.462Z,25.95
2023-02-08T00:34:59.579Z,25.40
2023-02-08T00:37:26.635Z,27.20
2023-02-08T00:39:53.675Z,29.25
2023-02-08T00:42:20.768Z,27.27
2023-02-08T00:44:47.793Z,28.45
2023-02-08T00:47:14.808Z,25.27
2023-02-08T00:49:41.867Z,26.98
2023-02-08T00:52:08.881Z,24.88
2023-02-08T00:54:35.885Z,27.77
2023-02-08T00:57:02.918Z,26.27
2023-02-08T00:59:30.006Z,25.80
2023-02-08T01:01:57.204Z,27.67
2023-02-08T01:04:24.235Z,27.17
2023-02-08T01:06:51.508Z,24.92
2023-02-08T01:09:18.641Z,26.02
2023-02-08T01:11:45.687Z,26.55
2023-02-08T01:14:12.714Z,27.65
2023-02-08T01:16:39.804Z,27.00
2023-02-08T01:19:06.863Z,28.02
2023-02-08T01:21:35.309Z,24.50
2023-02-08T01:24:02.453Z,28.38
2023-02-08T01:26:29.803Z,29.77
2023-02-08T01:28:57.116Z,29.33
2023-02-08T01:31:25.479Z,29.48
2023-02-08T01:33:52.565Z,25.25
2023-02-08T01:36:19.712Z,29.55
2023-02-08T01:38:47.026Z,31.48
2023-02-08T01:41:21.453Z,27.60
2023-02-08T01:44:03.828Z,32.65
2023-02-08T01:46:31.315Z,31.70
2023-02-08T01:49:00.254Z,30.58
2023-02-08T01:51:28.920Z,32.40
2023-02-08T01:53:56.808Z,29.05
2023-02-08T01:56:27.281Z,28.40
2023-02-08T01:58:56.060Z,29.63
2023-02-08T02:01:23.259Z,32.00
2023-02-08T02:03:50.340Z,28.42
2023-02-08T02:06:19.689Z,29.38
2023-02-08T02:08:51.745Z,25.52
2023-02-08T02:11:19.468Z,28.02
2023-02-08T02:13:47.245Z,29.23
2023-02-08T02:16:14.270Z,30.52
2023-02-08T02:18:41.296Z,27.98
2023-02-08T02:21:26.825Z,28.98
2023-02-08T02:24:12.355Z,31.45
2023-02-08T02:26:42.365Z,24.30
2023-02-08T02:29:19.133Z,28.60
2023-02-08T02:31:54.257Z,33.83
2023-02-08T02:34:33.440Z,35.83
2023-02-08T02:37:03.218Z,31.00
2023-02-08T02:39:33.407Z,31.38
2023-02-08T02:42:27.952Z,29.40
2023-02-08T02:45:13.077Z,28.33
2023-02-08T02:47:56.012Z,27.52
2023-02-08T02:50:38.233Z,22.60
2023-02-08T02:53:18.444Z,31.05
2023-02-08T02:55:47.710Z,30.00
2023-02-08T02:58:16.562Z,29.98
2023-02-08T03:00:43.784Z,32.45
2023-02-08T03:03:21.942Z,31.92
2023-02-08T03:05:49.325Z,30.85
2023-02-08T03:08:39.096Z,31.25
2023-02-08T03:11:16.752Z,33.13
2023-02-08T03:13:52.758Z,30.30
2023-02-08T03:16:40.144Z,34.45
2023-02-08T03:19:18.407Z,33.78
2023-02-08T03:22:02.540Z,29.35
2023-02-08T03:24:36.065Z,30.38
2023-02-08T03:27:21.962Z,34.53
2023-02-08T03:29:48.962Z,29.60
2023-02-08T03:32:39.006Z,30.73
2023-02-08T03:35:10.213Z,30.13
2023-02-08T03:37:39.758Z,29.27
2023-02-08T03:40:33.122Z,29.88
2023-02-08T03:43:02.116Z,29.80
2023-02-08T03:45:33.825Z,30.77
2023-02-08T03:48:04.299Z,27.25
2023-02-08T03:50:34.300Z,32.17
2023-02-08T03:53:01.530Z,31.80
2023-02-08T03:55:30.718Z,33.90
2023-02-08T03:58:05.624Z,30.77
2023-02-08T04:00:34.861Z,34.28
2023-02-08T04:03:06.786Z,34.03
2023-02-08T04:05:33.840Z,30.25
2023-02-08T04:08:00.963Z,33.08
2023-02-08T04:10:28.026Z,35.75
2023-02-08T04:12:55.062Z,37.20
2023-02-08T04:15:22.114Z,29.77
2023-02-08T04:17:49.137Z,30.98
2023-02-08T04:20:17.462Z,31.25
2023-02-08T04:22:44.503Z,32.58
2023-02-08T04:25:11.592Z,33.40
2023-02-08T04:27:38.612Z,31.75
2023-02-08T04:30:06.034Z,32.13
2023-02-08T04:32:33.077Z,33.80
2023-02-08T04:35:00.228Z,36.17
2023-02-08T04:37:27.232Z,32.05
2023-02-08T04:39:54.283Z,32.70
2023-02-08T04:42:21.338Z,31.33
2023-02-08T04:44:48.386Z,33.28
2023-02-08T04:47:15.421Z,34.20
2023-02-08T04:49:42.533Z,32.60
2023-02-08T04:52:09.566Z,36.67
2023-02-08T04:54:36.559Z,33.50
2023-02-08T04:57:03.552Z,35.92
2023-02-08T04:59:30.608Z,33.25
2023-02-08T05:01:57.630Z,36.95
2023-02-08T05:04:24.706Z,29.55
2023-02-08T05:06:51.725Z,31.48
2023-02-08T05:09:18.734Z,33.67
2023-02-08T05:11:45.746Z,34.75
2023-02-08T05:14:12.835Z,36.80
2023-02-08T05:16:39.906Z,41.45
2023-02-08T05:19:06.928Z,34.35
2023-02-08T05:21:33.966Z,34.75
2023-02-08T05:24:00.959Z,32.97
2023-02-08T05:26:27.980Z,34.38
2023-02-08T05:28:55.027Z,35.33
2023-02-08T05:31:23.182Z,37.45
2023-02-08T05:33:50.709Z,34.75
2023-02-08T05:36:17.817Z,34.63
2023-02-08T05:38:44.790Z,36.03
2023-02-08T05:41:11.848Z,33.05
2023-02-08T05:43:38.848Z,30.80
2023-02-08T05:46:05.939Z,35.80
2023-02-08T05:48:33.090Z,39.88
2023-02-08T05:51:00.492Z,35.90
2023-02-08T05:53:27.993Z,37.78
2023-02-08T05:55:55.025Z,32.88
2023-02-08T05:58:22.022Z,34.22
2023-02-08T06:00:49.091Z,36.80
2023-02-08T06:03:16.294Z,39.33
2023-02-08T06:05:43.449Z,36.20
2023-02-08T06:08:10.760Z,34.50
2023-02-08T06:10:37.913Z,36.03
2023-02-08T06:13:05.230Z,36.65
2023-02-08T06:15:32.274Z,40.08
2023-02-08T06:17:59.434Z,33.42
2023-02-08T06:20:26.589Z,35.83
2023-02-08T06:22:53.609Z,37.53
2023-02-08T06:25:20.599Z,36.22
2023-02-08T06:27:47.620Z,33.78
2023-02-08T06:30:14.657Z,36.35
2023-02-08T06:32:41.685Z,39.63
2023-02-08T06:35:08.814Z,43.55
2023-02-08T06:37:36.146Z,39.42
2023-02-08T06:40:03.253Z,37.92
2023-02-08T06:42:30.268Z,33.92
2023-02-08T06:44:58.317Z,36.83
2023-02-08T06:47:28.472Z,38.83
2023-02-08T06:49:55.515Z,38.90
2023-02-08T06:52:22.552Z,41.65
2023-02-08T06:54:49.694Z,40.00
2023-02-08T06:57:16.780Z,36.25
2023-02-08T06:59:43.808Z,38.28
2023-02-08T07:02:15.659Z,35.15
2023-02-08T07:04:42.857Z,36.10
2023-02-08T07:07:09.892Z,39.40
2023-02-08T07:09:37.236Z,30.88
2023-02-08T07:12:05.227Z,34.90
2023-02-08T07:14:36.527Z,36.17
2023-02-08T07:17:03.881Z,37.58
2023-02-08T07:19:30.971Z,37.60
2023-02-08T07:22:03.051Z,38.88
2023-02-08T07:24:30.075Z,36.72
2023-02-08T07:26:57.274Z,38.28
2023-02-08T07:29:24.265Z,39.95
2023-02-08T07:31:51.435Z,44.47
2023-02-08T07:34:21.777Z,38.05
2023-02-08T07:36:49.607Z,40.78
2023-02-08T07:39:16.634Z,41.38
2023-02-08T07:41:43.638Z,36.55
2023-02-08T07:44:10.638Z,38.30
2023-02-08T07:46:37.617Z,34.35
2023-02-08T07:49:04.625Z,39.03
2023-02-08T07:51:31.662Z,39.28
2023-02-08T07:53:58.689Z,36.67
2023-02-08T07:56:25.705Z,32.28
2023-02-08T07:58:52.697Z,40.95
2023-02-08T08:01:22.547Z,39.33
2023-02-08T08:03:50.932Z,36.70
2023-02-08T08:06:18.788Z,38.38
2023-02-08T08:08:47.439Z,34.78
2023-02-08T08:11:18.318Z,30.58
2023-02-08T08:13:45.463Z,37.80
2023-02-08T08:16:12.577Z,36.92
2023-02-08T08:18:40.007Z,31.52
2023-02-08T08:21:07.566Z,34.00
2023-02-08T08:23:36.039Z,35.13
2023-02-08T08:26:10.248Z,33.60
2023-02-08T08:28:38.049Z,37.90
2023-02-08T08:31:09.908Z,40.30
2023-02-08T08:33:36.991Z,33.70
2023-02-08T08:36:04.080Z,33.50
2023-02-08T08:38:31.113Z,34.00
2023-02-08T08:40:58.118Z,32.78
2023-02-08T08:43:25.157Z,36.60
2023-02-08T08:45:53.073Z,38.20
2023-02-08T08:48:20.384Z,32.40
2023-02-08T08:50:48.356Z,33.30
2023-02-08T08:53:15.439Z,32.88
2023-02-08T08:55:43.848Z,26.58
2023-02-08T08:58:12.502Z,32.40
2023-02-08T09:00:39.793Z,35.28
2023-02-08T09:03:07.128Z,35.40
2023-02-08T09:05:35.259Z,29.77
2023-02-08T09:08:03.446Z,32.08
2023-02-08T09:10:30.877Z,32.72
2023-02-08T09:12:58.365Z,34.17
2023-02-08T09:15:25.382Z,28.10
2023-02-08T09:17:52.473Z,33.38
2023-02-08T09:20:19.512Z,31.98
2023-02-08T09:22:46.514Z,34.60
2023-02-08T09:25:13.703Z,34.97
2023-02-08T09:27:40.806Z,33.22
2023-02-08T09:30:08.227Z,33.80
2023-02-08T09:32:35.362Z,32.28
2023-02-08T09:35:02.675Z,33.75
2023-02-08T09:37:30.228Z,32.08
2023-02-08T09:39:59.911Z,31.75
2023-02-08T09:42:26.934Z,35.53
2023-02-08T09:45:03.400Z,36.40
2023-02-08T09:47:33.144Z,30.45
2023-02-08T09:50:10.718Z,31.88
2023-02-08T09:52:37.868Z,35.90
2023-02-08T09:55:11.280Z,31.33
2023-02-08T09:57:39.242Z,31.83
2023-02-08T10:00:08.503Z,34.30
2023-02-08T10:02:35.624Z,34.30
2023-02-08T10:05:05.173Z,35.60
2023-02-08T10:07:32.756Z,37.55
2023-02-08T10:10:01.939Z,30.25
2023-02-08T10:12:31.935Z,34.85
2023-02-08T10:15:01.847Z,42.25
2023-02-08T10:17:45.787Z,34.05
2023-02-08T10:22:45.508Z,35.28
2023-02-08T10:25:12.491Z,36.10
2023-02-08T10:28:03.346Z,32.13
2023-02-08T10:30:39.527Z,31.17
2023-02-08T10:33:18.856Z,33.00
2023-02-08T10:35:48.039Z,40.03
2023-02-08T10:38:21.148Z,30.77
2023-02-08T10:40:49.755Z,29.90
2023-02-08T10:43:22.242Z,32.58
2023-02-08T10:45:56.623Z,35.28
2023-02-08T10:48:30.068Z,36.45
2023-02-08T10:50:57.126Z,33.22
2023-02-08T10:53:24.166Z,31.65
2023-02-08T10:55:51.483Z,34.67
2023-02-08T10:58:22.688Z,31.08
2023-02-08T11:00:51.936Z,34.28
2023-02-08T11:03:21.845Z,32.00
2023-02-08T11:05:48.982Z,32.15
2023-02-08T11:08:22.310Z,30.20
2023-02-08T11:10:59.814Z,33.70
2023-02-08T11:13:43.747Z,31.13
2023-02-08T11:18:47.585Z,29.00
2023-02-08T11:21:29.486Z,39.17
2023-02-08T11:23:57.633Z,35.65
2023-02-08T11:26:31.998Z,40.17
2023-02-08T11:29:00.449Z,34.10
2023-02-08T11:31:28.333Z,33.10
2023-02-08T11:34:06.190Z,33.45
2023-02-08T11:36:34.746Z,33.35
2023-02-08T11:39:02.831Z,34.47
2023-02-08T11:41:30.499Z,35.33
2023-02-08T11:43:57.513Z,30.65
2023-02-08T11:46:26.105Z,34.75
2023-02-08T11:48:53.767Z,34.08
2023-02-08T11:51:26.284Z,34.70
2023-02-08T11:53:53.930Z,36.53
2023-02-08T11:56:21.035Z,34.05
2023-02-08T11:59:14.343Z,35.83
2023-02-08T12:01:42.274Z,37.22
2023-02-08T12:04:11.851Z,34.65
2023-02-08T12:06:57.674Z,33.67
2023-02-08T12:09:32.660Z,37.55
2023-02-08T12:12:10.863Z,33.30
2023-02-08T12:14:53.673Z,32.88
2023-02-08T12:17:39.507Z,34.22
2023-02-08T12:20:06.944Z,33.53
2023-02-08T12:22:39.415Z,34.67
2023-02-08T12:25:18.602Z,34.13
2023-02-08T12:27:45.837Z,35.25
2023-02-08T12:30:31.383Z,35.47
2023-02-08T12:33:17.378Z,36.90
2023-02-08T12:36:01.803Z,33.63
2023-02-08T12:39:20.788Z,35.25
2023-02-08T12:41:48.981Z,35.83
2023-02-08T12:44:18.736Z,36.60
2023-02-08T12:46:45.721Z,34.53
2023-02-08T12:49:27.349Z,32.95
2023-02-08T12:52:03.724Z,30.33
2023-02-08T12:54:40.625Z,34.03
2023-02-08T12:57:08.011Z,35.22
2023-02-08T12:59:38.486Z,36.53
2023-02-08T13:02:16.105Z,31.70
2023-02-08T13:04:46.481Z,33.25
2023-02-08T13:07:26.234Z,33.45
2023-02-08T13:09:56.240Z,37.00
2023-02-08T13:12:44.285Z,35.38
2023-02-08T13:15:29.739Z,32.78
2023-02-08T13:18:04.582Z,33.03
2023-02-08T13:20:50.437Z,35.63
2023-02-08T13:23:34.776Z,34.60
2023-02-08T13:26:18.928Z,32.40
2023-02-08T13:28:50.804Z,33.30
2023-02-08T13:31:23.867Z,33.25
2023-02-08T13:34:01.192Z,30.40
2023-02-08T13:36:29.051Z,32.80
2023-02-08T13:38:57.274Z,30.63
2023-02-08T13:41:25.358Z,30.02
2023-02-08T13:44:20.055Z,29.48
2023-02-08T13:46:51.116Z,28.42
2023-02-08T13:49:37.057Z,27.23
2023-02-08T13:52:04.129Z,28.60
2023-02-08T13:54:31.438Z,27.27
2023-02-08T13:56:58.521Z,25.83
2023-02-08T13:59:34.941Z,27.00
2023-02-08T14:02:22.658Z,29.95
2023-02-08T14:04:54.214Z,25.67
2023-02-08T14:07:44.530Z,25.52
2023-02-08T14:10:23.901Z,26.17
2023-02-08T14:12:57.124Z,27.70
2023-02-08T14:15:28.845Z,25.35
2023-02-08T14:17:58.419Z,26.95
2023-02-08T14:20:55.292Z,25.30
2023-02-08T14:23:23.814Z,31.35
2023-02-08T14:25:52.132Z,30.05
2023-02-08T14:28:27.116Z,26.77
2023-02-08T14:30:57.142Z,29.55
2023-02-08T14:33:44.524Z,28.50
2023-02-08T14:36:26.744Z,32.78
2023-02-08T14:39:06.268Z,26.50
2023-02-08T14:41:48.656Z,26.75
2023-02-08T14:44:34.740Z,26.73
2023-02-08T14:47:01.811Z,27.60
2023-02-08T14:49:36.091Z,27.45
2023-02-08T14:52:11.391Z,26.30
2023-02-08T14:54:44.384Z,25.55
2023-02-08T14:57:22.649Z,25.67
2023-02-08T14:59:49.742Z,27.98
2023-02-08T15:02:21.593Z,26.33
2023-02-08T15:04:48.959Z,25.73
2023-02-08T15:07:33.377Z,27.30
2023-02-08T15:10:02.727Z,28.92
2023-02-08T15:12:32.790Z,27.25
2023-02-08T15:15:00.765Z,24.35
2023-02-08T15:17:33.743Z,30.58
2023-02-08T15:20:01.564Z,29.17
2023-02-08T15:22:32.024Z,30.40
2023-02-08T15:25:01.454Z,28.52
2023-02-08T15:27:30.172Z,29.20
2023-02-08T15:29:57.268Z,29.85
2023-02-08T15:32:25.944Z,27.30
2023-02-08T15:34:58.289Z,26.25
2023-02-08T15:37:25.512Z,25.45
2023-02-08T15:39:54.258Z,30.02
2023-02-08T15:42:25.940Z,29.80
2023-02-08T15:44:53.290Z,27.95
2023-02-08T15:47:23.154Z,28.10
2023-02-08T15:49:53.378Z,29.20
2023-02-08T15:52:21.823Z,27.40
2023-02-08T15:54:48.951Z,32.55
2023-02-08T15:57:33.918Z,28.67
2023-02-08T16:00:01.444Z,29.63
2023-02-08T16:02:30.007Z,29.80
2023-02-08T16:04:57.782Z,32.20
2023-02-08T16:07:27.763Z,25.92
2023-02-08T16:09:55.421Z,30.67
2023-02-08T16:12:24.286Z,29.63
2023-02-08T16:14:53.035Z,28.95
2023-02-08T16:17:34.226Z,33.35
2023-02-08T16:20:01.242Z,31.70
2023-02-08T16:22:34.326Z,31.63
2023-02-08T16:25:19.986Z,22.38
2023-02-08T16:27:50.341Z,31.13
2023-02-08T16:30:21.274Z,29.90
2023-02-08T16:32:48.668Z,29.30
2023-02-08T16:35:22.109Z,33.17
2023-02-08T16:37:54.499Z,28.48
2023-02-08T16:40:35.215Z,29.13
2023-02-08T16:43:20.831Z,31.92
2023-02-08T16:46:07.855Z,31.02
2023-02-08T16:48:36.271Z,29.25
2023-02-08T16:51:04.319Z,33.25
2023-02-08T16:53:41.380Z,32.90
2023-02-08T16:56:08.956Z,31.83
2023-02-08T16:58:36.055Z,31.27
2023-02-08T17:01:03.192Z,30.88
2023-02-08T17:03:30.513Z,31.50
2023-02-08T17:05:57.667Z,32.65
2023-02-08T17:08:24.772Z,27.40
2023-02-08T17:10:54.921Z,38.35
2023-02-08T17:13:24.236Z,30.85
2023-02-08T17:15:51.786Z,29.88
2023-02-08T17:18:19.227Z,33.78
2023-02-08T17:20:46.809Z,31.40
2023-02-08T17:23:15.690Z,30.73
2023-02-08T17:25:43.479Z,30.00
2023-02-08T17:28:20.601Z,30.65
2023-02-08T17:30:48.524Z,30.13
2023-02-08T17:33:18.880Z,31.52
2023-02-08T17:35:50.382Z,31.42
2023-02-08T17:38:18.435Z,38.35
2023-02-08T17:40:45.713Z,28.38
2023-02-08T17:43:13.263Z,33.08
2023-02-08T17:45:41.572Z,32.05
2023-02-08T17:48:08.820Z,30.05
2023-02-08T17:50:36.308Z,30.63
2023-02-08T17:53:03.948Z,32.05
2023-02-08T17:55:31.310Z,31.40
2023-02-08T17:57:58.478Z,32.80
2023-02-08T18:00:25.807Z,33.85
2023-02-08T18:02:54.443Z,34.90
2023-02-08T18:05:23.041Z,33.10
2023-02-08T18:07:50.828Z,31.35
2023-02-08T18:10:18.131Z,29.98
2023-02-08T18:12:45.254Z,32.30
2023-02-08T18:15:19.909Z,32.60
2023-02-08T18:17:47.491Z,30.77
2023-02-08T18:20:15.261Z,30.17
2023-02-08T18:22:43.033Z,31.92
2023-02-08T18:25:10.796Z,32.65
2023-02-08T18:27:37.827Z,30.33
2023-02-08T18:30:05.222Z,27.73
2023-02-08T18:32:32.227Z,35.30
2023-02-08T18:34:59.881Z,31.02
2023-02-08T18:37:28.312Z,28.95
2023-02-08T18:39:55.331Z,32.22
2023-02-08T18:42:22.394Z,32.70
2023-02-08T18:44:49.486Z,32.40
2023-02-08T18:47:16.589Z,27.17
2023-02-08T18:49:43.661Z,32.53
2023-02-08T18:52:11.828Z,29.73
2023-02-08T18:54:39.551Z,29.05
2023-02-08T18:57:09.405Z,30.52
2023-02-08T18:59:36.648Z,32.88
2023-02-08T19:02:03.785Z,28.40
2023-02-08T19:04:31.337Z,37.38
2023-02-08T19:06:58.373Z,29.58
2023-02-08T19:09:25.566Z,31.10
2023-02-08T19:11:52.635Z,31.65
2023-02-08T19:14:20.014Z,32.03
2023-02-08T19:16:47.053Z,28.90
2023-02-08T19:19:14.095Z,30.55
2023-02-08T19:21:41.196Z,31.05
2023-02-08T19:24:08.322Z,28.45
2023-02-08T19:26:39.465Z,29.10
2023-02-08T19:29:08.726Z,30.00
2023-02-08T19:31:35.907Z,28.95
2023-02-08T19:34:03.463Z,28.75
2023-02-08T19:36:32.730Z,30.60
2023-02-08T19:39:00.339Z,28.30
2023-02-08T19:41:34.898Z,27.85
2023-02-08T19:44:04.610Z,31.38
2023-02-08T19:46:32.942Z,29.63
2023-02-08T19:49:00.758Z,28.58
2023-02-08T19:51:28.843Z,27.70
2023-02-08T19:53:56.973Z,26.75
2023-02-08T19:56:24.188Z,28.85
2023-02-08T19:58:51.287Z,27.90
2023-02-08T20:01:19.778Z,30.85
2023-02-08T20:03:47.207Z,27.70
2023-02-08T20:06:18.422Z,27.42
2023-02-08T20:08:45.716Z,28.13
2023-02-08T20:11:17.622Z,29.85
2023-02-08T20:13:44.695Z,26.95
2023-02-08T20:16:12.006Z,29.38
2023-02-08T20:18:39.126Z,30.13
2023-02-08T20:21:06.271Z,28.70
2023-02-08T20:23:33.677Z,30.25
2023-02-08T20:26:14.885Z,29.58
2023-02-08T20:28:44.284Z,26.58
2023-02-08T20:31:12.877Z,25.65
2023-02-08T20:33:39.908Z,28.15
2023-02-08T20:36:08.179Z,25.10
2023-02-08T20:38:35.209Z,28.48
2023-02-08T20:41:06.371Z,29.95
2023-02-08T20:43:34.889Z,28.38
2023-02-08T20:46:05.071Z,34.92
2023-02-08T20:48:32.187Z,30.95
2023-02-08T20:51:06.109Z,26.95
2023-02-08T20:53:33.950Z,30.05
2023-02-08T20:56:00.967Z,24.85
2023-02-08T20:58:28.058Z,26.85
2023-02-08T21:00:55.223Z,30.20
2023-02-08T21:03:22.478Z,27.63
2023-02-08T21:05:49.472Z,27.08
2023-02-08T21:08:16.532Z,27.15
2023-02-08T21:10:43.841Z,24.95
2023-02-08T21:13:11.146Z,25.35
2023-02-08T21:15:42.272Z,25.45
2023-02-08T21:18:09.533Z,24.13
2023-02-08T21:20:40.251Z,27.33
2023-02-08T21:23:07.962Z,27.67
2023-02-08T21:25:35.037Z,26.58
2023-02-08T21:28:02.165Z,25.45
2023-02-08T21:30:29.325Z,29.60
2023-02-08T21:32:56.352Z,25.88
2023-02-08T21:35:23.385Z,26.45
2023-02-08T21:37:50.444Z,25.98
2023-02-08T21:40:17.509Z,24.40
2023-02-08T21:42:44.682Z,24.05
2023-02-08T21:45:11.757Z,24.65
2023-02-08T21:47:38.781Z,19.92
2023-02-08T21:50:24.868Z,22.83
2023-02-08T21:53:10.330Z,24.17
2023-02-08T21:55:37.352Z,22.23
2023-02-08T21:58:04.418Z,22.20
2023-02-08T22:00:31.483Z,22.38
2023-02-08T22:02:58.582Z,23.88
2023-02-08T22:05:44.525Z,24.10
2023-02-08T22:08:12.843Z,22.60
2023-02-08T22:10:42.808Z,21.92
2023-02-08T22:13:14.388Z,22.38
2023-02-08T22:15:41.474Z,22.83
2023-02-08T22:18:08.510Z,25.30
2023-02-08T22:20:35.590Z,21.38
2023-02-08T22:23:03.277Z,21.67
2023-02-08T22:25:30.675Z,21.77
2023-02-08T22:27:57.754Z,21.08
2023-02-08T22:30:25.763Z,22.02
2023-02-08T22:32:52.922Z,26.52
2023-02-08T22:35:20.622Z,24.35
2023-02-08T22:37:47.662Z,21.63
2023-02-08T22:40:14.687Z,24.75
2023-02-08T22:42:41.949Z,23.15
2023-02-08T22:45:10.859Z,23.77
2023-02-08T22:47:38.463Z,21.95
2023-02-08T22:50:06.889Z,22.23
2023-02-08T22:52:34.488Z,21.10
2023-02-08T22:55:03.969Z,21.63
2023-02-08T22:57:35.038Z,21.90
2023-02-08T23:00:02.195Z,23.38
2023-02-08T23:02:29.484Z,21.92
2023-02-08T23:04:56.627Z,23.40
2023-02-08T23:07:23.634Z,22.40
2023-02-08T23:09:50.742Z,21.58
2023-02-08T23:12:17.796Z,21.80
2023-02-08T23:14:44.882Z,23.35
2023-02-08T23:17:11.948Z,21.23
2023-02-08T23:19:38.988Z,23.48
2023-02-08T23:22:05.977Z,22.58
2023-02-08T23:24:33.097Z,24.88
2023-02-08T23:27:00.251Z,24.90
2023-02-08T23:29:27.560Z,22.70
2023-02-08T23:31:54.628Z,25.63
2023-02-08T23:34:21.650Z,22.38
2023-02-08T23:36:48.667Z,24.23
2023-02-08T23:39:15.672Z,22.50
2023-02-08T23:41:42.768Z,22.25
2023-02-08T23:44:09.830Z,24.77
2023-02-08T23:46:36.905Z,23.73
2023-02-08T23:49:04.050Z,24.52
2023-02-08T23:51:31.035Z,25.33
2023-02-08T23:53:58.144Z,29.05
2023-02-08T23:56:28.904Z,25.55
2023-02-08T23:58:57.510Z,23.77
